sensor_id;sensor_type;location;lat;lon;timestamp;pressure;altitude;pressure_sealevel;temperature;humidity
38038;BME280;23843;51.320;12.340;2022-11-27T05:32:22;101651.44;;;1.68;100.00
38038;BME280;23843;51.320;12.340;2022-11-27T05:34:47;101655.81;;;1.69;100.00
38038;BME280;23843;51.320;12.340;2022-11-27T05:37:13;101662.78;;;1.67;100.00
38038;BME280;23843;51.320;12.340;2022-11-27T05:39:38;101662.75;;;1.65;100.00
38038;BME280;23843;51.320;12.340;2022-11-27T05:42:03;101657.56;;;1.67;100.00
38038;BME280;23843;51.320;12.340;2022-11-27T05:44:29;101657.56;;;1.67;100.00
38038;BME280;23843;51.320;12.340;2022-11-27T05:46:54;101663.63;;;1.64;100.00
38038;BME280;23843;51.320;12.340;2022-11-27T05:49:21;101662.75;;;1.65;100.00
38038;BME280;23843;51.320;12.340;2022-11-27T05:51:47;101657.56;;;1.64;100.00
38038;BME280;23843;51.320;12.340;2022-11-27T05:54:12;101655.81;;;1.64;100.00
38038;BME280;23843;51.320;12.340;2022-11-27T05:56:37;101653.16;;;1.63;100.00
38038;BME280;23843;51.320;12.340;2022-11-27T05:59:03;101647.09;;;1.64;100.00
38038;BME280;23843;51.320;12.340;2022-11-27T06:01:29;101640.16;;;1.66;100.00
38038;BME280;23843;51.320;12.340;2022-11-27T06:03:54;101641.88;;;1.67;100.00
38038;BME280;23843;51.320;12.340;2022-11-27T06:06:21;101642.75;;;1.67;100.00
38038;BME280;23843;51.320;12.340;2022-11-27T06:08:46;101651.47;;;1.69;100.00
38038;BME280;23843;51.320;12.340;2022-11-27T06:11:14;101641.00;;;1.69;100.00
38038;BME280;23843;51.320;12.340;2022-11-27T06:13:40;101642.75;;;1.69;100.00
38038;BME280;23843;51.320;12.340;2022-11-27T06:16:06;101643.59;;;1.68;100.00
38038;BME280;23843;51.320;12.340;2022-11-27T06:18:32;101654.94;;;1.70;100.00
38038;BME280;23843;51.320;12.340;2022-11-27T06:20:58;101658.41;;;1.70;100.00
38038;BME280;23843;51.320;12.340;2022-11-27T06:23:25;101647.09;;;1.70;100.00
38038;BME280;23843;51.320;12.340;2022-11-27T06:25:50;101651.44;;;1.68;100.00
38038;BME280;23843;51.320;12.340;2022-11-27T06:28:15;101649.69;;;1.65;100.00
38038;BME280;23843;51.320;12.340;2022-11-27T06:30:41;101643.59;;;1.65;100.00
38038;BME280;23843;51.320;12.340;2022-11-27T06:33:06;101646.25;;;1.66;100.00
38038;BME280;23843;51.320;12.340;2022-11-27T06:35:32;101641.84;;;1.65;100.00
38038;BME280;23843;51.320;12.340;2022-11-27T06:37:57;101642.75;;;1.64;100.00
38038;BME280;23843;51.320;12.340;2022-11-27T06:40:24;101633.16;;;1.65;100.00
38038;BME280;23843;51.320;12.340;2022-11-27T06:42:49;101633.13;;;1.63;100.00
38038;BME280;23843;51.320;12.340;2022-11-27T06:45:15;101621.84;;;1.61;100.00
38038;BME280;23843;51.320;12.340;2022-11-27T06:47:40;101628.78;;;1.62;100.00
38038;BME280;23843;51.320;12.340;2022-11-27T06:50:06;101622.69;;;1.60;100.00
38038;BME280;23843;51.320;12.340;2022-11-27T06:52:32;101624.44;;;1.61;100.00
38038;BME280;23843;51.320;12.340;2022-11-27T06:54:57;101627.94;;;1.66;100.00
38038;BME280;23843;51.320;12.340;2022-11-27T06:57:24;101614.84;;;1.63;100.00
38038;BME280;23843;51.320;12.340;2022-11-27T06:59:49;101611.41;;;1.67;100.00
38038;BME280;23843;51.320;12.340;2022-11-27T07:02:15;101608.81;;;1.69;100.00
38038;BME280;23843;51.320;12.340;2022-11-27T07:04:40;101599.22;;;1.69;100.00
38038;BME280;23843;51.320;12.340;2022-11-27T07:07:06;101593.13;;;1.69;100.00
38038;BME280;23843;51.320;12.340;2022-11-27T07:09:31;101595.75;;;1.74;100.00
38038;BME280;23843;51.320;12.340;2022-11-27T07:11:56;101597.50;;;1.76;100.00
38038;BME280;23843;51.320;12.340;2022-11-27T07:14:23;101593.13;;;1.80;100.00
38038;BME280;23843;51.320;12.340;2022-11-27T07:16:49;101603.59;;;1.80;100.00
38038;BME280;23843;51.320;12.340;2022-11-27T07:19:14;101599.25;;;1.85;100.00
38038;BME280;23843;51.320;12.340;2022-11-27T07:21:39;101599.25;;;1.91;100.00
38038;BME280;23843;51.320;12.340;2022-11-27T07:24:06;101588.81;;;2.00;100.00
38038;BME280;23843;51.320;12.340;2022-11-27T07:26:31;101589.66;;;2.02;100.00
38038;BME280;23843;51.320;12.340;2022-11-27T07:28:57;101587.09;;;2.05;100.00
38038;BME280;23843;51.320;12.340;2022-11-27T07:31:25;101587.94;;;2.12;100.00
38038;BME280;23843;51.320;12.340;2022-11-27T07:33:51;101582.72;;;2.18;100.00
38038;BME280;23843;51.320;12.340;2022-11-27T07:36:18;101584.47;;;2.24;100.00
38038;BME280;23843;51.320;12.340;2022-11-27T07:38:44;101574.03;;;2.27;100.00
38038;BME280;23843;51.320;12.340;2022-11-27T07:41:10;101567.91;;;2.29;100.00
38038;BME280;23843;51.320;12.340;2022-11-27T07:43:36;101562.66;;;2.34;100.00
38038;BME280;23843;51.320;12.340;2022-11-27T07:46:02;101567.91;;;2.35;100.00
38038;BME280;23843;51.320;12.340;2022-11-27T07:48:29;101560.03;;;2.46;100.00
38038;BME280;23843;51.320;12.340;2022-11-27T07:50:55;101560.88;;;2.67;100.00
38038;BME280;23843;51.320;12.340;2022-11-27T07:53:20;101555.59;;;2.91;100.00
38038;BME280;23843;51.320;12.340;2022-11-27T07:55:45;101557.25;;;3.11;100.00
38038;BME280;23843;51.320;12.340;2022-11-27T07:58:11;101545.88;;;3.18;100.00
38038;BME280;23843;51.320;12.340;2022-11-27T08:00:37;101551.06;;;3.24;100.00
38038;BME280;23843;51.320;12.340;2022-11-27T08:03:02;101544.88;;;3.47;100.00
38038;BME280;23843;51.320;12.340;2022-11-27T08:05:31;101541.16;;;3.78;100.00
38038;BME280;23843;51.320;12.340;2022-11-27T08:07:58;101535.50;;;4.31;100.00
38038;BME280;23843;51.320;12.340;2022-11-27T08:10:24;101542.91;;;4.77;97.88
38038;BME280;23843;51.320;12.340;2022-11-27T08:12:49;101536.34;;;5.14;95.62
38038;BME280;23843;51.320;12.340;2022-11-27T08:15:14;101542.13;;;5.38;92.62
38038;BME280;23843;51.320;12.340;2022-11-27T08:17:40;101548.91;;;5.56;93.46
38038;BME280;23843;51.320;12.340;2022-11-27T08:20:06;101543.97;;;5.93;88.84
38038;BME280;23843;51.320;12.340;2022-11-27T08:22:34;101548.94;;;6.12;87.39
38038;BME280;23843;51.320;12.340;2022-11-27T08:24:59;101542.06;;;6.54;89.87
38038;BME280;23843;51.320;12.340;2022-11-27T08:27:25;101540.31;;;6.53;89.82
38038;BME280;23843;51.320;12.340;2022-11-27T08:29:50;101543.41;;;6.75;87.48
38038;BME280;23843;51.320;12.340;2022-11-27T08:32:16;101535.03;;;6.55;82.62
38038;BME280;23843;51.320;12.340;2022-11-27T08:34:41;101532.16;;;6.69;84.62
38038;BME280;23843;51.320;12.340;2022-11-27T08:37:07;101531.94;;;6.79;84.36
38038;BME280;23843;51.320;12.340;2022-11-27T08:39:33;101535.94;;;6.99;83.85
38038;BME280;23843;51.320;12.340;2022-11-27T08:41:59;101533.88;;;7.13;81.49
38038;BME280;23843;51.320;12.340;2022-11-27T08:44:24;101530.88;;;7.32;81.41
38038;BME280;23843;51.320;12.340;2022-11-27T08:46:50;101533.91;;;7.52;81.08
38038;BME280;23843;51.320;12.340;2022-11-27T08:49:15;101526.69;;;7.60;79.58
38038;BME280;23843;51.320;12.340;2022-11-27T08:51:41;101526.56;;;7.66;80.49
38038;BME280;23843;51.320;12.340;2022-11-27T08:54:06;101525.72;;;7.66;80.38
38038;BME280;23843;51.320;12.340;2022-11-27T08:56:33;101518.09;;;7.52;77.43
38038;BME280;23843;51.320;12.340;2022-11-27T08:58:58;101522.75;;;7.41;78.78
38038;BME280;23843;51.320;12.340;2022-11-27T09:01:25;101520.09;;;7.41;80.48
38038;BME280;23843;51.320;12.340;2022-11-27T09:03:51;101512.47;;;7.28;76.94
38038;BME280;23843;51.320;12.340;2022-11-27T09:06:19;101507.59;;;7.10;78.25
38038;BME280;23843;51.320;12.340;2022-11-27T09:08:45;101519.94;;;7.10;80.95
38038;BME280;23843;51.320;12.340;2022-11-27T09:11:11;101509.41;;;7.08;80.86
38038;BME280;23843;51.320;12.340;2022-11-27T09:13:38;101512.03;;;7.08;79.42
38038;BME280;23843;51.320;12.340;2022-11-27T09:16:05;101512.13;;;7.03;79.53
38038;BME280;23843;51.320;12.340;2022-11-27T09:18:30;101510.34;;;7.05;81.43
38038;BME280;23843;51.320;12.340;2022-11-27T09:20:59;101500.72;;;7.03;82.22
38038;BME280;23843;51.320;12.340;2022-11-27T09:23:24;101506.69;;;7.11;82.21
38038;BME280;23843;51.320;12.340;2022-11-27T09:25:50;101509.31;;;7.13;81.96
38038;BME280;23843;51.320;12.340;2022-11-27T09:28:15;101498.63;;;7.19;83.96
38038;BME280;23843;51.320;12.340;2022-11-27T09:30:42;101506.41;;;7.25;82.86
38038;BME280;23843;51.320;12.340;2022-11-27T09:33:08;101507.38;;;7.19;81.07
38038;BME280;23843;51.320;12.340;2022-11-27T09:35:35;101512.63;;;7.22;83.95
38038;BME280;23843;51.320;12.340;2022-11-27T09:38:01;101501.09;;;7.26;84.02
38038;BME280;23843;51.320;12.340;2022-11-27T09:40:26;101513.38;;;7.27;80.58
38038;BME280;23843;51.320;12.340;2022-11-27T09:42:56;101513.50;;;7.21;81.56
38038;BME280;23843;51.320;12.340;2022-11-27T09:45:24;101507.34;;;7.22;81.30
38038;BME280;23843;51.320;12.340;2022-11-27T09:47:55;101502.69;;;7.34;83.97
38038;BME280;23843;51.320;12.340;2022-11-27T09:50:25;101497.28;;;7.41;84.66
38038;BME280;23843;51.320;12.340;2022-11-27T09:52:54;101502.34;;;7.49;84.15
38038;BME280;23843;51.320;12.340;2022-11-27T09:55:23;101499.00;;;7.41;80.45
38038;BME280;23843;51.320;12.340;2022-11-27T09:57:55;101499.94;;;7.40;79.47
38038;BME280;23843;51.320;12.340;2022-11-27T10:00:22;101495.97;;;7.20;80.02
38038;BME280;23843;51.320;12.340;2022-11-27T10:02:48;101481.94;;;7.18;79.79
38038;BME280;23843;51.320;12.340;2022-11-27T10:05:17;101481.88;;;7.21;81.16
38038;BME280;23843;51.320;12.340;2022-11-27T10:08:19;101481.75;;;7.27;83.15
38038;BME280;23843;51.320;12.340;2022-11-27T10:10:58;101475.44;;;7.35;81.41
38038;BME280;23843;51.320;12.340;2022-11-27T10:13:40;101484.13;;;7.38;82.03
38038;BME280;23843;51.320;12.340;2022-11-27T10:16:18;101475.34;;;7.39;80.17
38038;BME280;23843;51.320;12.340;2022-11-27T10:18:50;101469.19;;;7.39;81.11
38038;BME280;23843;51.320;12.340;2022-11-27T10:21:26;101465.09;;;7.25;78.74
38038;BME280;23843;51.320;12.340;2022-11-27T10:23:58;101462.59;;;7.19;79.78
38038;BME280;23843;51.320;12.340;2022-11-27T10:26:31;101463.41;;;7.23;80.93
38038;BME280;23843;51.320;12.340;2022-11-27T10:29:02;101457.94;;;7.32;81.22
38038;BME280;23843;51.320;12.340;2022-11-27T10:31:36;101462.19;;;7.38;81.17
38038;BME280;23843;51.320;12.340;2022-11-27T10:34:05;101452.69;;;7.29;78.36
38038;BME280;23843;51.320;12.340;2022-11-27T10:36:42;101450.06;;;7.29;78.45
38038;BME280;23843;51.320;12.340;2022-11-27T10:39:12;101450.03;;;7.31;80.62
38038;BME280;23843;51.320;12.340;2022-11-27T10:41:44;101446.25;;;7.44;82.01
38038;BME280;23843;51.320;12.340;2022-11-27T10:44:22;101445.00;;;7.59;84.10
38038;BME280;23843;51.320;12.340;2022-11-27T10:46:50;101447.28;;;7.72;83.40
38038;BME280;23843;51.320;12.340;2022-11-27T10:49:18;101433.03;;;7.80;83.21
38038;BME280;23843;51.320;12.340;2022-11-27T10:51:45;101428.56;;;7.83;81.30
38038;BME280;23843;51.320;12.340;2022-11-27T10:54:15;101436.63;;;7.77;77.36
38038;BME280;23843;51.320;12.340;2022-11-27T10:56:54;101426.44;;;7.63;78.77
38038;BME280;23843;51.320;12.340;2022-11-27T10:59:26;101423.72;;;7.66;80.62
38038;BME280;23843;51.320;12.340;2022-11-27T11:01:52;101418.16;;;7.77;81.63
38038;BME280;23843;51.320;12.340;2022-11-27T11:04:20;101404.13;;;7.75;79.39
38038;BME280;23843;51.320;12.340;2022-11-27T11:06:48;101405.03;;;7.76;78.61
38038;BME280;23843;51.320;12.340;2022-11-27T11:09:16;101408.28;;;7.85;81.12
38038;BME280;23843;51.320;12.340;2022-11-27T11:11:42;101403.03;;;7.84;79.67
38038;BME280;23843;51.320;12.340;2022-11-27T11:14:20;101404.13;;;7.75;76.95
38038;BME280;23843;51.320;12.340;2022-11-27T11:16:46;101401.38;;;7.80;80.49
38038;BME280;23843;51.320;12.340;2022-11-27T11:19:21;101394.28;;;7.83;80.49
38038;BME280;23843;51.320;12.340;2022-11-27T11:21:48;101394.22;;;7.85;79.02
38038;BME280;23843;51.320;12.340;2022-11-27T11:24:22;101394.47;;;7.76;76.88
38038;BME280;23843;51.320;12.340;2022-11-27T11:26:50;101377.22;;;7.62;78.07
38038;BME280;23843;51.320;12.340;2022-11-27T11:29:26;101372.78;;;7.64;77.62
38038;BME280;23843;51.320;12.340;2022-11-27T11:31:53;101371.91;;;7.64;76.83
38038;BME280;23843;51.320;12.340;2022-11-27T11:34:22;101362.19;;;7.66;77.68
38038;BME280;23843;51.320;12.340;2022-11-27T11:37:00;101360.44;;;7.65;77.49
38038;BME280;23843;51.320;12.340;2022-11-27T11:39:29;101356.72;;;7.74;78.72
38038;BME280;23843;51.320;12.340;2022-11-27T11:41:56;101353.84;;;7.83;78.07
38038;BME280;23843;51.320;12.340;2022-11-27T11:44:23;101369.28;;;7.97;80.00
38038;BME280;23843;51.320;12.340;2022-11-27T11:46:53;101354.97;;;8.05;77.99
38038;BME280;23843;51.320;12.340;2022-11-27T11:49:22;101361.97;;;8.06;76.86
38038;BME280;23843;51.320;12.340;2022-11-27T11:52:08;101362.66;;;8.14;78.67
38038;BME280;23843;51.320;12.340;2022-11-27T11:54:47;101357.09;;;8.24;78.24
38038;BME280;23843;51.320;12.340;2022-11-27T12:00:09;101362.00;;;8.36;79.18
38038;BME280;23843;51.320;12.340;2022-11-27T12:02:49;101350.66;;;8.34;75.49
38038;BME280;23843;51.320;12.340;2022-11-27T12:05:28;101337.53;;;8.31;77.67
38038;BME280;23843;51.320;12.340;2022-11-27T12:08:19;101330.41;;;8.34;80.35
38038;BME280;23843;51.320;12.340;2022-11-27T12:10:56;101325.59;;;8.49;77.34
38038;BME280;23843;51.320;12.340;2022-11-27T12:13:41;101316.34;;;8.64;75.58
38038;BME280;23843;51.320;12.340;2022-11-27T12:16:15;101316.50;;;8.59;75.46
38038;BME280;23843;51.320;12.340;2022-11-27T12:18:52;101312.44;;;8.47;74.80
38038;BME280;23843;51.320;12.340;2022-11-27T12:21:24;101301.28;;;8.36;74.02
38038;BME280;23843;51.320;12.340;2022-11-27T12:24:16;101302.53;;;8.24;74.73
38038;BME280;23843;51.320;12.340;2022-11-27T12:26:54;101288.59;;;8.19;75.80
38038;BME280;23843;51.320;12.340;2022-11-27T12:29:36;101289.53;;;8.17;77.02
38038;BME280;23843;51.320;12.340;2022-11-27T12:32:30;101290.03;;;8.00;75.37
38038;BME280;23843;51.320;12.340;2022-11-27T12:35:05;101285.88;;;7.91;77.06
38038;BME280;23843;51.320;12.340;2022-11-27T12:37:48;101290.66;;;7.78;76.89
38038;BME280;23843;51.320;12.340;2022-11-27T12:40:34;101286.03;;;7.85;77.19
38038;BME280;23843;51.320;12.340;2022-11-27T12:43:13;101270.94;;;7.90;76.98
38038;BME280;23843;51.320;12.340;2022-11-27T12:45:46;101263.13;;;7.87;77.23
38038;BME280;23843;51.320;12.340;2022-11-27T12:48:16;101259.63;;;7.86;77.97
38038;BME280;23843;51.320;12.340;2022-11-27T12:50:47;101247.50;;;7.81;78.53
38038;BME280;23843;51.320;12.340;2022-11-27T12:53:18;101247.72;;;7.73;76.80
38038;BME280;23843;51.320;12.340;2022-11-27T12:55:59;101249.47;;;7.72;78.39
38038;BME280;23843;51.320;12.340;2022-11-27T12:58:30;101251.22;;;7.74;78.29
38038;BME280;23843;51.320;12.340;2022-11-27T13:01:01;101246.75;;;7.76;79.25
38038;BME280;23843;51.320;12.340;2022-11-27T13:03:32;101248.63;;;7.70;77.70
38038;BME280;23843;51.320;12.340;2022-11-27T13:06:02;101245.22;;;7.67;78.41
38038;BME280;23843;51.320;12.340;2022-11-27T13:08:44;101239.94;;;7.68;79.59
38038;BME280;23843;51.320;12.340;2022-11-27T13:11:15;101245.09;;;7.71;80.21
38038;BME280;23843;51.320;12.340;2022-11-27T13:13:43;101238.88;;;7.74;79.29
38038;BME280;23843;51.320;12.340;2022-11-27T13:16:11;101237.31;;;7.67;78.89
38038;BME280;23843;51.320;12.340;2022-11-27T13:18:40;101240.88;;;7.66;79.23
38038;BME280;23843;51.320;12.340;2022-11-27T13:21:10;101232.06;;;7.65;78.81
38038;BME280;23843;51.320;12.340;2022-11-27T13:23:37;101228.47;;;7.68;78.86
38038;BME280;23843;51.320;12.340;2022-11-27T13:26:04;101233.50;;;7.77;80.80
38038;BME280;23843;51.320;12.340;2022-11-27T13:28:37;101219.50;;;7.75;78.72
38038;BME280;23843;51.320;12.340;2022-11-27T13:31:05;101223.06;;;7.74;78.94
38038;BME280;23843;51.320;12.340;2022-11-27T13:33:36;101214.34;;;7.70;78.83
38038;BME280;23843;51.320;12.340;2022-11-27T13:36:03;101218.72;;;7.71;79.17
38038;BME280;23843;51.320;12.340;2022-11-27T13:38:30;101204.56;;;7.76;80.16
38038;BME280;23843;51.320;12.340;2022-11-27T13:40:55;101213.22;;;7.79;79.06
38038;BME280;23843;51.320;12.340;2022-11-27T13:43:24;101216.72;;;7.80;79.15
38038;BME280;23843;51.320;12.340;2022-11-27T13:46:00;101213.94;;;7.86;79.94
38038;BME280;23843;51.320;12.340;2022-11-27T13:48:31;101214.69;;;7.89;80.06
38038;BME280;23843;51.320;12.340;2022-11-27T13:50:58;101200.63;;;7.89;79.16
38038;BME280;23843;51.320;12.340;2022-11-27T13:53:31;101207.59;;;7.91;78.71
38038;BME280;23843;51.320;12.340;2022-11-27T13:55:57;101197.06;;;7.90;77.07
38038;BME280;23843;51.320;12.340;2022-11-27T13:58:28;101198.72;;;7.94;78.13
38038;BME280;23843;51.320;12.340;2022-11-27T14:00:55;101196.06;;;7.96;77.61
38038;BME280;23843;51.320;12.340;2022-11-27T14:03:23;101200.38;;;7.98;77.43
38038;BME280;23843;51.320;12.340;2022-11-27T14:05:48;101188.97;;;7.98;77.97
38038;BME280;23843;51.320;12.340;2022-11-27T14:08:19;101189.72;;;8.01;78.33
38038;BME280;23843;51.320;12.340;2022-11-27T14:10:50;101187.91;;;8.03;78.93
38038;BME280;23843;51.320;12.340;2022-11-27T14:13:17;101182.63;;;8.03;77.92
38038;BME280;23843;51.320;12.340;2022-11-27T14:15:43;101189.81;;;7.98;77.33
38038;BME280;23843;51.320;12.340;2022-11-27T14:18:16;101191.66;;;7.94;76.83
38038;BME280;23843;51.320;12.340;2022-11-27T14:20:45;101178.59;;;7.90;76.88
38038;BME280;23843;51.320;12.340;2022-11-27T14:24:52;101183.72;;;7.96;76.55
38038;BME280;23843;51.320;12.340;2022-11-27T14:27:20;101184.66;;;7.95;77.03
38038;BME280;23843;51.320;12.340;2022-11-27T14:29:49;101179.44;;;7.92;76.04
38038;BME280;23843;51.320;12.340;2022-11-27T14:32:16;101183.09;;;7.88;76.66
38038;BME280;23843;51.320;12.340;2022-11-27T14:34:42;101181.44;;;7.84;77.20
38038;BME280;23843;51.320;12.340;2022-11-27T14:37:19;101172.75;;;7.80;76.99
38038;BME280;23843;51.320;12.340;2022-11-27T14:39:46;101172.97;;;7.72;76.11
38038;BME280;23843;51.320;12.340;2022-11-27T14:42:19;101164.34;;;7.67;77.08
38038;BME280;23843;51.320;12.340;2022-11-27T14:44:45;101171.53;;;7.62;77.26
38038;BME280;23843;51.320;12.340;2022-11-27T14:47:17;101158.44;;;7.59;76.35
38038;BME280;23843;51.320;12.340;2022-11-27T14:49:44;101161.16;;;7.56;77.32
38038;BME280;23843;51.320;12.340;2022-11-27T14:52:12;101161.22;;;7.53;77.18
38038;BME280;23843;51.320;12.340;2022-11-27T14:54:40;101156.19;;;7.45;77.06
38038;BME280;23843;51.320;12.340;2022-11-27T14:57:13;101156.50;;;7.35;76.78
38038;BME280;23843;51.320;12.340;2022-11-27T14:59:39;101158.28;;;7.34;77.84
38038;BME280;23843;51.320;12.340;2022-11-27T15:02:16;101158.34;;;7.31;78.52
38038;BME280;23843;51.320;12.340;2022-11-27T15:04:43;101158.41;;;7.29;78.85
38038;BME280;23843;51.320;12.340;2022-11-27T15:07:13;101154.97;;;7.26;79.24
38038;BME280;23843;51.320;12.340;2022-11-27T15:09:42;101153.28;;;7.23;78.45
38038;BME280;23843;51.320;12.340;2022-11-27T15:12:15;101149.78;;;7.23;79.25
38038;BME280;23843;51.320;12.340;2022-11-27T15:14:44;101149.81;;;7.21;78.95
38038;BME280;23843;51.320;12.340;2022-11-27T15:17:15;101151.56;;;7.22;80.18
38038;BME280;23843;51.320;12.340;2022-11-27T15:19:41;101142.91;;;7.17;79.70
38038;BME280;23843;51.320;12.340;2022-11-27T15:22:14;101143.91;;;7.13;79.76
38038;BME280;23843;51.320;12.340;2022-11-27T15:24:40;101144.81;;;7.12;79.08
38038;BME280;23843;51.320;12.340;2022-11-27T15:27:15;101136.97;;;7.09;79.89
38038;BME280;23843;51.320;12.340;2022-11-27T15:29:43;101132.66;;;7.06;80.50
38038;BME280;23843;51.320;12.340;2022-11-27T15:32:15;101132.72;;;7.05;80.69
38038;BME280;23843;51.320;12.340;2022-11-27T15:34:40;101127.56;;;7.00;80.73
38038;BME280;23843;51.320;12.340;2022-11-27T15:37:19;101120.66;;;6.95;79.95
38038;BME280;23843;51.320;12.340;2022-11-27T15:39:47;101117.19;;;6.94;79.98
38038;BME280;23843;51.320;12.340;2022-11-27T15:42:14;101118.09;;;6.93;80.88
38038;BME280;23843;51.320;12.340;2022-11-27T15:44:40;101110.34;;;6.87;80.09
38038;BME280;23843;51.320;12.340;2022-11-27T15:47:06;101106.09;;;6.83;79.63
38038;BME280;23843;51.320;12.340;2022-11-27T15:49:43;101103.47;;;6.81;80.50
38038;BME280;23843;51.320;12.340;2022-11-27T15:52:08;101088.72;;;6.76;79.32
38038;BME280;23843;51.320;12.340;2022-11-27T15:54:34;101087.81;;;6.77;80.35
38038;BME280;23843;51.320;12.340;2022-11-27T15:56:59;101077.28;;;6.75;80.06
38038;BME280;23843;51.320;12.340;2022-11-27T15:59:26;101080.84;;;6.74;80.63
38038;BME280;23843;51.320;12.340;2022-11-27T16:01:52;101080.00;;;6.74;79.70
38038;BME280;23843;51.320;12.340;2022-11-27T16:04:17;101079.13;;;6.73;80.26
38038;BME280;23843;51.320;12.340;2022-11-27T16:06:42;101086.19;;;6.71;79.22
38038;BME280;23843;51.320;12.340;2022-11-27T16:09:08;101086.97;;;6.75;79.48
38038;BME280;23843;51.320;12.340;2022-11-27T16:11:33;101092.31;;;6.72;79.61
38038;BME280;23843;51.320;12.340;2022-11-27T16:13:59;101087.81;;;6.75;79.07
38038;BME280;23843;51.320;12.340;2022-11-27T16:16:26;101094.84;;;6.76;78.88
38038;BME280;23843;51.320;12.340;2022-11-27T16:18:55;101084.41;;;6.73;78.72
38038;BME280;23843;51.320;12.340;2022-11-27T16:21:20;101085.28;;;6.72;79.72
38038;BME280;23843;51.320;12.340;2022-11-27T16:23:46;101080.09;;;6.71;79.80
38038;BME280;23843;51.320;12.340;2022-11-27T16:26:12;101066.13;;;6.67;80.13
38038;BME280;23843;51.320;12.340;2022-11-27T16:28:38;101066.22;;;6.62;80.66
38038;BME280;23843;51.320;12.340;2022-11-27T16:31:07;101064.44;;;6.64;80.63
38038;BME280;23843;51.320;12.340;2022-11-27T16:33:34;101064.44;;;6.64;80.69
38038;BME280;23843;51.320;12.340;2022-11-27T16:36:03;101053.94;;;6.63;80.47
38038;BME280;23843;51.320;12.340;2022-11-27T16:38:29;101055.69;;;6.62;80.79
38038;BME280;23843;51.320;12.340;2022-11-27T16:40:58;101051.38;;;6.60;81.48
38038;BME280;23843;51.320;12.340;2022-11-27T16:43:23;101043.66;;;6.54;80.68
38038;BME280;23843;51.320;12.340;2022-11-27T16:45:49;101033.16;;;6.52;81.14
38038;BME280;23843;51.320;12.340;2022-11-27T16:48:14;101034.13;;;6.50;81.41
38038;BME280;23843;51.320;12.340;2022-11-27T16:50:41;101034.13;;;6.48;81.08
38038;BME280;23843;51.320;12.340;2022-11-27T16:53:06;101025.56;;;6.41;81.54
38038;BME280;23843;51.320;12.340;2022-11-27T16:55:32;101017.56;;;6.45;81.91
38038;BME280;23843;51.320;12.340;2022-11-27T16:57:57;101020.13;;;6.48;82.20
38038;BME280;23843;51.320;12.340;2022-11-27T17:00:23;101021.88;;;6.49;82.33
38038;BME280;23843;51.320;12.340;2022-11-27T17:02:48;101010.53;;;6.45;81.32
38038;BME280;23843;51.320;12.340;2022-11-27T17:05:13;101004.41;;;6.45;82.09
38038;BME280;23843;51.320;12.340;2022-11-27T17:07:40;101005.28;;;6.45;82.29
38038;BME280;23843;51.320;12.340;2022-11-27T17:10:07;100995.53;;;6.49;83.08
38038;BME280;23843;51.320;12.340;2022-11-27T17:12:32;100994.75;;;6.45;82.40
38038;BME280;23843;51.320;12.340;2022-11-27T17:14:58;100983.38;;;6.43;82.14
38038;BME280;23843;51.320;12.340;2022-11-27T17:17:23;100981.63;;;6.43;82.93
38038;BME280;23843;51.320;12.340;2022-11-27T17:19:49;100978.97;;;6.43;82.95
38038;BME280;23843;51.320;12.340;2022-11-27T17:22:14;100974.63;;;6.44;83.58
38038;BME280;23843;51.320;12.340;2022-11-27T17:24:41;100969.28;;;6.46;82.93
38038;BME280;23843;51.320;12.340;2022-11-27T17:27:06;100966.66;;;6.46;83.15
38038;BME280;23843;51.320;12.340;2022-11-27T17:29:32;100969.38;;;6.42;83.11
38038;BME280;23843;51.320;12.340;2022-11-27T17:31:57;100966.00;;;6.37;83.65
38038;BME280;23843;51.320;12.340;2022-11-27T17:34:23;100964.22;;;6.39;83.30
38038;BME280;23843;51.320;12.340;2022-11-27T17:36:48;100971.25;;;6.39;83.88
38038;BME280;23843;51.320;12.340;2022-11-27T17:39:14;100972.13;;;6.38;84.56
38038;BME280;23843;51.320;12.340;2022-11-27T17:41:42;100973.06;;;6.35;83.86
38038;BME280;23843;51.320;12.340;2022-11-27T17:44:07;100979.28;;;6.33;84.67
38038;BME280;23843;51.320;12.340;2022-11-27T17:46:33;100964.34;;;6.33;84.36
38038;BME280;23843;51.320;12.340;2022-11-27T17:49:00;100969.53;;;6.36;84.83
38038;BME280;23843;51.320;12.340;2022-11-27T17:51:26;100973.94;;;6.36;84.42
38038;BME280;23843;51.320;12.340;2022-11-27T17:53:52;100975.78;;;6.32;84.91
38038;BME280;23843;51.320;12.340;2022-11-27T17:56:19;100976.78;;;6.28;84.84
38038;BME280;23843;51.320;12.340;2022-11-27T17:58:46;100979.53;;;6.24;85.42
38038;BME280;23843;51.320;12.340;2022-11-27T18:01:14;100984.00;;;6.20;84.68
38038;BME280;23843;51.320;12.340;2022-11-27T18:03:40;100984.91;;;6.19;85.54
38038;BME280;23843;51.320;12.340;2022-11-27T18:06:06;100977.06;;;6.17;85.44
38038;BME280;23843;51.320;12.340;2022-11-27T18:08:32;100977.94;;;6.16;85.25
38038;BME280;23843;51.320;12.340;2022-11-27T18:11:03;100978.97;;;6.12;85.58
38038;BME280;23843;51.320;12.340;2022-11-27T18:13:29;100968.53;;;6.08;85.57
38038;BME280;23843;51.320;12.340;2022-11-27T18:15:55;100965.97;;;6.05;85.51
38038;BME280;23843;51.320;12.340;2022-11-27T18:18:27;100966.03;;;6.03;85.75
38038;BME280;23843;51.320;12.340;2022-11-27T18:20:52;100961.66;;;6.02;85.71
38038;BME280;23843;51.320;12.340;2022-11-27T18:23:18;100957.44;;;5.96;85.80
38038;BME280;23843;51.320;12.340;2022-11-27T18:25:43;100948.72;;;5.93;85.72
38038;BME280;23843;51.320;12.340;2022-11-27T18:28:08;100941.00;;;5.85;85.85
38038;BME280;23843;51.320;12.340;2022-11-27T18:30:34;100946.34;;;5.82;85.94